This is the latest recevied weather packets stored in our database for station/object K0WOI. If no packets are shown the sender has not sent any weather packets the latest 10 day(s).
| Time | Temp. | Humidity | Pressure | Rain* | Wind** | Luminosity | Snow |
|---|---|---|---|---|---|---|---|
| 1777671739 | 13.33° C | 44% | 1016.4 hPa | 0 mm | - | 140 W/m² | - |
| 1777671436 | 13.33° C | 42% | 1016.5 hPa | 0 mm | - | 144 W/m² | - |
| 1777671131 | 13.33° C | 43% | 1016.2 hPa | 0 mm | - | 163 W/m² | - |
| 1777670822 | 13.33° C | 46% | 1016.7 hPa | 0 mm | - | 165 W/m² | - |
| 1777670519 | 13.33° C | 45% | 1016.6 hPa | 0 mm | - | 171 W/m² | - |
| 1777670216 | 13.89° C | 42% | 1016.4 hPa | 0 mm | - | 159 W/m² | - |
| 1777669913 | 13.89° C | 42% | 1016.7 hPa | 0 mm | - | 163 W/m² | - |
| 1777669610 | 13.89° C | 44% | 1016.6 hPa | 0 mm | - | 213 W/m² | - |
| 1777669307 | 13.89° C | 44% | 1016.7 hPa | 0 mm | - | 219 W/m² | - |
| 1777669003 | 13.33° C | 43% | 1016.8 hPa | 0 mm | - | 212 W/m² | - |
| 1777668701 | 13.33° C | 41% | 1016.6 hPa | 0 mm | - | 186 W/m² | - |
| 1777668397 | 13.33° C | 43% | 1016.9 hPa | 0 mm | - | 155 W/m² | - |
| 1777668093 | 13.33° C | 43% | 1016.8 hPa | 0 mm | - | 164 W/m² | - |
| 1777667790 | 13.33° C | 43% | 1016.7 hPa | 0 mm | - | 184 W/m² | - |
| 1777667487 | 13.33° C | 43% | 1016.8 hPa | 0 mm | - | 165 W/m² | - |
| 1777667184 | 14.44° C | 39% | 1016.7 hPa | 0 mm | - | 238 W/m² | - |
| 1777666881 | 14.44° C | 43% | 1016.5 hPa | 0 mm | - | 395 W/m² | - |
| 1777666578 | 15° C | 38% | 1016.7 hPa | 0 mm | - | 291 W/m² | - |
| 1777666274 | 14.44° C | 46% | 1016.9 hPa | 0 mm | - | 652 W/m² | - |
| 1777665972 | 13.33° C | 44% | 1016.5 hPa | 0 mm | - | 263 W/m² | - |
| 1777665669 | 13.89° C | 39% | 1016.8 hPa | 0 mm | - | 203 W/m² | - |
| 1777665367 | 15° C | 40% | 1016.7 hPa | 0 mm | - | 265 W/m² | - |
| 1777665062 | 15° C | 42% | 1016.9 hPa | 0 mm | - | 597 W/m² | - |
| 1777664758 | 13.89° C | 44% | 1016.8 hPa | 0 mm | - | 668 W/m² | - |
| 1777664454 | 13.89° C | 42% | 1016.9 hPa | 0 mm | - | 296 W/m² | - |
* Rain latest hour (hover to see other rain measurements)
** Current wind speed in m/s (hover to see current wind gust speed)